PHSTZ EHRD-EHAM
Flight info
| Callsign | PHSTZ |
|---|---|
| Flight time | N/A |
| Altitude | 1000 |
| Route | EHRD STAY01/0100 DCT EHAM |
| Aircraft | DA42/L-SBDGRY/S |
Departure
| Time | 2026-04-28 18:13 |
|---|---|
| Airport | Rotterdam The Hague Airport (EHRD) |
Arrival
| Time | N/A |
|---|---|
| Airport | Amsterdam Airport Schiphol (EHAM) |
| Time | Latitude | Longitude | Altitude | Speed | Heading |
|---|---|---|---|---|---|
| 2026-04-28 17:40 | 51.94873 | 4.43782 | -12 ft | 0 kts | 146° |
| 2026-04-28 17:54 | 51.94869 | 4.43785 | -12 ft | 4 kts | 154° |
| 2026-04-28 17:54 | 51.94873 | 4.43831 | -12 ft | 0 kts | 64° |
| 2026-04-28 17:56 | 51.94890 | 4.43862 | -12 ft | 11 kts | 20° |
| 2026-04-28 17:57 | 51.94949 | 4.43818 | -12 ft | 11 kts | 318° |
| 2026-04-28 17:57 | 51.94972 | 4.43718 | -12 ft | 13 kts | 326° |
| 2026-04-28 17:57 | 51.95071 | 4.43614 | -11 ft | 17 kts | 326° |
| 2026-04-28 17:57 | 51.95165 | 4.43514 | -11 ft | 15 kts | 332° |
| 2026-04-28 17:58 | 51.95240 | 4.43432 | -11 ft | 9 kts | 297° |
| 2026-04-28 17:58 | 51.95217 | 4.43341 | -11 ft | 11 kts | 237° |
| 2026-04-28 17:58 | 51.95177 | 4.43240 | -11 ft | 11 kts | 236° |
| 2026-04-28 17:58 | 51.95161 | 4.43118 | -11 ft | 11 kts | 307° |
| 2026-04-28 17:59 | 51.95192 | 4.43097 | -11 ft | 0 kts | 1° |
| 2026-04-28 18:05 | 51.95224 | 4.43100 | -11 ft | 12 kts | 5° |
| 2026-04-28 18:05 | 51.95327 | 4.43124 | -10 ft | 10 kts | 50° |
| 2026-04-28 18:05 | 51.95331 | 4.43134 | -10 ft | 0 kts | 55° |
| 2026-04-28 18:06 | 51.95420 | 4.43360 | -10 ft | 53 kts | 57° |
| 2026-04-28 18:06 | 51.95692 | 4.43989 | 125 ft | 74 kts | 51° |
| 2026-04-28 18:06 | 51.95996 | 4.44656 | 379 ft | 74 kts | 53° |
| 2026-04-28 18:07 | 51.96429 | 4.45003 | 428 ft | 93 kts | 348° |
| 2026-04-28 18:07 | 51.96646 | 4.43888 | 480 ft | 128 kts | 254° |
| 2026-04-28 18:07 | 51.96084 | 4.42662 | 461 ft | 140 kts | 229° |
| 2026-04-28 18:07 | 51.95461 | 4.41474 | 506 ft | 140 kts | 229° |
| 2026-04-28 18:08 | 51.94846 | 4.40235 | 527 ft | 144 kts | 231° |
| 2026-04-28 18:08 | 51.94234 | 4.38966 | 548 ft | 141 kts | 231° |
| 2026-04-28 18:08 | 51.93434 | 4.38707 | 484 ft | 104 kts | 117° |
| 2026-04-28 18:08 | 51.93561 | 4.39409 | 477 ft | 71 kts | 41° |
| 2026-04-28 18:09 | 51.93927 | 4.39914 | 465 ft | 67 kts | 43° |
| 2026-04-28 18:09 | 51.94220 | 4.40446 | 399 ft | 59 kts | 47° |
| 2026-04-28 18:09 | 51.94448 | 4.40974 | 327 ft | 56 kts | 52° |
| 2026-04-28 18:09 | 51.94682 | 4.41522 | 206 ft | 63 kts | 51° |
| 2026-04-28 18:10 | 51.94930 | 4.42124 | 161 ft | 67 kts | 54° |
| 2026-04-28 18:10 | 51.95194 | 4.42781 | 84 ft | 71 kts | 54° |
| 2026-04-28 18:10 | 51.95465 | 4.43462 | 4 ft | 72 kts | 54° |
| 2026-04-28 18:10 | 51.95705 | 4.44048 | -10 ft | 49 kts | 54° |
| 2026-04-28 18:11 | 51.95952 | 4.44656 | 111 ft | 71 kts | 53° |
| 2026-04-28 18:11 | 51.96287 | 4.45308 | 382 ft | 77 kts | 31° |
| 2026-04-28 18:11 | 51.96831 | 4.44894 | 393 ft | 124 kts | 306° |
| 2026-04-28 18:11 | 51.96615 | 4.43412 | 424 ft | 145 kts | 239° |
| 2026-04-28 18:12 | 51.96024 | 4.42167 | 507 ft | 138 kts | 229° |
| 2026-04-28 18:12 | 51.95466 | 4.40914 | 525 ft | 136 kts | 236° |
| 2026-04-28 18:12 | 51.94894 | 4.39665 | 514 ft | 140 kts | 236° |
| 2026-04-28 18:12 | 51.94303 | 4.38411 | 471 ft | 143 kts | 228° |
| 2026-04-28 18:13 | 51.93479 | 4.37835 | 565 ft | 116 kts | 165° |
| 2026-04-28 18:13 | 51.92857 | 4.38309 | 599 ft | 85 kts | 103° |
| 2026-04-28 18:13 | 51.93101 | 4.38994 | 563 ft | 89 kts | 36° |
| 2026-04-28 18:13 | 51.93596 | 4.39583 | 556 ft | 72 kts | 38° |
| 2026-04-28 18:14 | 51.93929 | 4.40023 | 482 ft | 58 kts | 41° |
| 2026-04-28 18:14 | 51.94277 | 4.40600 | 326 ft | 86 kts | 47° |
| 2026-04-28 18:14 | 51.94647 | 4.41410 | 243 ft | 92 kts | 54° |
| 2026-04-28 18:14 | 51.94996 | 4.42287 | 145 ft | 92 kts | 56° |
| 2026-04-28 18:15 | 51.95321 | 4.43115 | -7 ft | 73 kts | 56° |
| 2026-04-28 18:15 | 51.95499 | 4.43550 | -10 ft | 21 kts | 59° |
| 2026-04-28 18:15 | 51.95605 | 4.43819 | -10 ft | 39 kts | 57° |
| 2026-04-28 18:15 | 51.95752 | 4.44185 | -10 ft | 37 kts | 57° |
| 2026-04-28 18:16 | 51.95871 | 4.44480 | -10 ft | 28 kts | 57° |
| 2026-04-28 18:16 | 51.95905 | 4.44659 | -10 ft | 15 kts | 117° |
| 2026-04-28 18:16 | 51.95844 | 4.44747 | -11 ft | 0 kts | 148° |
| 2026-04-28 18:19 | 51.95843 | 4.44748 | -11 ft | 1 kts | 147° |
| 2026-04-28 18:20 | 51.95797 | 4.44766 | -11 ft | 8 kts | 200° |
| 2026-04-28 18:20 | 51.95743 | 4.44667 | -11 ft | 17 kts | 230° |
| 2026-04-28 18:20 | 51.95674 | 4.44481 | -11 ft | 18 kts | 238° |
| 2026-04-28 18:20 | 51.95613 | 4.44326 | -11 ft | 15 kts | 237° |
| 2026-04-28 18:21 | 51.95562 | 4.44196 | -11 ft | 13 kts | 235° |
| 2026-04-28 18:21 | 51.95512 | 4.44079 | -11 ft | 12 kts | 236° |
| 2026-04-28 18:21 | 51.95468 | 4.43970 | -11 ft | 11 kts | 237° |
| 2026-04-28 18:21 | 51.95427 | 4.43867 | -11 ft | 11 kts | 237° |
| 2026-04-28 18:22 | 51.95383 | 4.43758 | -11 ft | 17 kts | 238° |
| 2026-04-28 18:22 | 51.95317 | 4.43584 | -11 ft | 17 kts | 235° |
| 2026-04-28 18:22 | 51.95237 | 4.43391 | -11 ft | 24 kts | 236° |
| 2026-04-28 18:22 | 51.95152 | 4.43168 | -11 ft | 17 kts | 261° |
| 2026-04-28 18:23 | 51.95198 | 4.43096 | -11 ft | 0 kts | 2° |
| 2026-04-28 18:24 | 51.95204 | 4.43097 | -11 ft | 7 kts | 1° |
| 2026-04-28 18:24 | 51.95279 | 4.43105 | -10 ft | 11 kts | 2° |
| 2026-04-28 18:25 | 51.95333 | 4.43137 | -10 ft | 0 kts | 58° |
| 2026-04-28 18:26 | 51.95335 | 4.43142 | -10 ft | 7 kts | 57° |
| 2026-04-28 18:26 | 51.95470 | 4.43482 | -10 ft | 61 kts | 57° |
| 2026-04-28 18:27 | 51.95772 | 4.44212 | 42 ft | 87 kts | 54° |
| 2026-04-28 18:27 | 51.96193 | 4.44888 | 295 ft | 86 kts | 6° |
| 2026-04-28 18:27 | 51.96659 | 4.44370 | 430 ft | 95 kts | 281° |
| 2026-04-28 18:27 | 51.96399 | 4.43364 | 520 ft | 104 kts | 237° |
| 2026-04-28 18:28 | 51.95968 | 4.42397 | 530 ft | 105 kts | 234° |
| 2026-04-28 18:28 | 51.95463 | 4.41706 | 502 ft | 90 kts | 184° |
| 2026-04-28 18:28 | 51.95109 | 4.42367 | 229 ft | 84 kts | 80° |
| 2026-04-28 18:28 | 51.95331 | 4.43126 | -9 ft | 66 kts | 60° |
| 2026-04-28 18:29 | 51.95552 | 4.43680 | -10 ft | 72 kts | 58° |
| 2026-04-28 18:29 | 51.95877 | 4.44463 | 185 ft | 87 kts | 53° |
| 2026-04-28 18:29 | 51.96370 | 4.44414 | 373 ft | 92 kts | 286° |
| 2026-04-28 18:29 | 51.96067 | 4.43417 | 421 ft | 109 kts | 232° |
| 2026-04-28 18:30 | 51.95630 | 4.42462 | 539 ft | 106 kts | 232° |
| 2026-04-28 18:30 | 51.95253 | 4.42142 | 403 ft | 94 kts | 165° |
| 2026-04-28 18:30 | 51.95347 | 4.43173 | 20 ft | 73 kts | 59° |
| 2026-04-28 18:30 | 51.95570 | 4.43717 | -10 ft | 49 kts | 56° |
| 2026-04-28 18:31 | 51.95843 | 4.44392 | 95 ft | 82 kts | 52° |
| 2026-04-28 18:31 | 51.96261 | 4.45016 | 383 ft | 89 kts | 352° |
| 2026-04-28 18:31 | 51.96380 | 4.44146 | 476 ft | 112 kts | 237° |
| 2026-04-28 18:31 | 51.95949 | 4.43027 | 565 ft | 121 kts | 239° |
| 2026-04-28 18:32 | 51.95437 | 4.42028 | 592 ft | 105 kts | 202° |
| 2026-04-28 18:32 | 51.95128 | 4.42630 | 289 ft | 89 kts | 53° |
| 2026-04-28 18:32 | 51.95449 | 4.43425 | -8 ft | 72 kts | 57° |
| 2026-04-28 18:32 | 51.95698 | 4.44045 | -10 ft | 81 kts | 57° |
| 2026-04-28 18:33 | 51.96051 | 4.44762 | 253 ft | 87 kts | 18° |
| 2026-04-28 18:33 | 51.96465 | 4.44120 | 368 ft | 108 kts | 264° |
| 2026-04-28 18:33 | 51.96092 | 4.43030 | 479 ft | 114 kts | 235° |
| 2026-04-28 18:33 | 51.95620 | 4.41988 | 513 ft | 117 kts | 237° |
| 2026-04-28 18:34 | 51.95150 | 4.41153 | 606 ft | 89 kts | 193° |
| 2026-04-28 18:34 | 51.94784 | 4.41757 | 295 ft | 91 kts | 78° |
| 2026-04-28 18:34 | 51.95089 | 4.42546 | 108 ft | 78 kts | 53° |
| 2026-04-28 18:34 | 51.95389 | 4.43280 | 3 ft | 76 kts | 57° |
| 2026-04-28 18:35 | 51.95647 | 4.43921 | -10 ft | 70 kts | 59° |
| 2026-04-28 18:35 | 51.96019 | 4.44561 | 219 ft | 81 kts | 8° |
| 2026-04-28 18:35 | 51.96375 | 4.43950 | 362 ft | 102 kts | 258° |
| 2026-04-28 18:35 | 51.95971 | 4.42907 | 490 ft | 113 kts | 233° |
| 2026-04-28 18:36 | 51.95490 | 4.41898 | 587 ft | 114 kts | 233° |
| 2026-04-28 18:36 | 51.95030 | 4.40847 | 628 ft | 111 kts | 245° |
| 2026-04-28 18:36 | 51.94805 | 4.39673 | 537 ft | 111 kts | 258° |
| 2026-04-28 18:36 | 51.94908 | 4.38524 | 503 ft | 103 kts | 312° |
| 2026-04-28 18:37 | 51.95569 | 4.38372 | 418 ft | 104 kts | 28° |
| 2026-04-28 18:37 | 51.95777 | 4.39412 | 379 ft | 101 kts | 109° |
| 2026-04-28 18:37 | 51.95284 | 4.40184 | 358 ft | 103 kts | 158° |
| 2026-04-28 18:37 | 51.94698 | 4.40783 | 403 ft | 95 kts | 118° |
| 2026-04-28 18:38 | 51.94789 | 4.41773 | 293 ft | 89 kts | 56° |
| 2026-04-28 18:38 | 51.95112 | 4.42584 | 99 ft | 82 kts | 56° |
| 2026-04-28 18:38 | 51.95411 | 4.43328 | -2 ft | 77 kts | 56° |
| 2026-04-28 18:38 | 51.95673 | 4.43985 | -10 ft | 83 kts | 56° |
| 2026-04-28 18:39 | 51.96034 | 4.44773 | 216 ft | 90 kts | 31° |
| 2026-04-28 18:39 | 51.96562 | 4.44500 | 375 ft | 98 kts | 291° |
| 2026-04-28 18:39 | 51.96260 | 4.43575 | 368 ft | 114 kts | 205° |
| 2026-04-28 18:39 | 51.95794 | 4.42599 | 476 ft | 111 kts | 239° |
| 2026-04-28 18:40 | 51.95375 | 4.41522 | 480 ft | 114 kts | 236° |
| 2026-04-28 18:40 | 51.94907 | 4.40524 | 612 ft | 106 kts | 238° |
| 2026-04-28 18:40 | 51.94514 | 4.39538 | 665 ft | 104 kts | 237° |
| 2026-04-28 18:40 | 51.94084 | 4.38653 | 674 ft | 92 kts | 213° |
| 2026-04-28 18:41 | 51.93569 | 4.39026 | 596 ft | 111 kts | 86° |
| 2026-04-28 18:41 | 51.93991 | 4.40023 | 571 ft | 100 kts | 43° |
| 2026-04-28 18:41 | 51.94429 | 4.40840 | 435 ft | 94 kts | 53° |
| 2026-04-28 18:41 | 51.94786 | 4.41735 | 264 ft | 93 kts | 56° |
| 2026-04-28 18:42 | 51.95122 | 4.42592 | 121 ft | 86 kts | 57° |
| 2026-04-28 18:42 | 51.95417 | 4.43352 | -6 ft | 74 kts | 56° |
| 2026-04-28 18:42 | 51.95658 | 4.43955 | -10 ft | 51 kts | 57° |
| 2026-04-28 18:42 | 51.95873 | 4.44494 | -10 ft | 80 kts | 57° |
| 2026-04-28 18:43 | 51.96331 | 4.45032 | 240 ft | 88 kts | 32° |
| 2026-04-28 18:43 | 51.96675 | 4.46042 | 390 ft | 114 kts | 66° |
| 2026-04-28 18:43 | 51.97310 | 4.46648 | 509 ft | 118 kts | 346° |
| 2026-04-28 18:43 | 51.97747 | 4.45750 | 490 ft | 120 kts | 250° |
| 2026-04-28 18:44 | 51.97286 | 4.44606 | 491 ft | 123 kts | 233° |
| 2026-04-28 18:44 | 51.96225 | 4.42476 | 491 ft | 118 kts | 229° |
| 2026-04-28 18:44 | 51.95733 | 4.41452 | 496 ft | 108 kts | 255° |
| 2026-04-28 18:45 | 51.96026 | 4.40402 | 413 ft | 116 kts | 327° |
| 2026-04-28 18:45 | 51.96800 | 4.40079 | 439 ft | 114 kts | 355° |
| 2026-04-28 18:45 | 51.97580 | 4.40190 | 476 ft | 114 kts | 352° |
| 2026-04-28 18:45 | 51.98171 | 4.39446 | 740 ft | 104 kts | 287° |
| 2026-04-28 18:46 | 51.97806 | 4.38545 | 808 ft | 115 kts | 191° |
| 2026-04-28 18:46 | 51.97069 | 4.39019 | 835 ft | 127 kts | 135° |
| 2026-04-28 18:46 | 51.96800 | 4.40308 | 899 ft | 129 kts | 71° |
| 2026-04-28 18:46 | 51.97484 | 4.41009 | 924 ft | 123 kts | 347° |
| 2026-04-28 18:47 | 51.97964 | 4.40029 | 843 ft | 129 kts | 263° |
| 2026-04-28 18:47 | 51.97392 | 4.39067 | 914 ft | 126 kts | 206° |
| 2026-04-28 18:47 | 51.96553 | 4.38573 | 897 ft | 130 kts | 197° |
| 2026-04-28 18:47 | 51.95662 | 4.38480 | 863 ft | 127 kts | 170° |
| 2026-04-28 18:48 | 51.94895 | 4.38918 | 732 ft | 108 kts | 156° |
| 2026-04-28 18:48 | 51.94299 | 4.39586 | 519 ft | 101 kts | 128° |
| 2026-04-28 18:48 | 51.94230 | 4.40545 | 363 ft | 86 kts | 55° |
| 2026-04-28 18:48 | 51.94566 | 4.41276 | 230 ft | 77 kts | 51° |
| 2026-04-28 18:49 | 51.94880 | 4.42001 | 163 ft | 80 kts | 54° |
| 2026-04-28 18:49 | 51.95082 | 4.42496 | 100 ft | 81 kts | 55° |
| 2026-04-28 18:49 | 51.95469 | 4.43477 | -10 ft | 71 kts | 56° |
| 2026-04-28 18:49 | 51.95710 | 4.44078 | -10 ft | 79 kts | 57° |
| 2026-04-28 18:50 | 51.96084 | 4.44874 | 186 ft | 90 kts | 32° |
| 2026-04-28 18:50 | 51.96629 | 4.44780 | 456 ft | 88 kts | 302° |
| 2026-04-28 18:50 | 51.96590 | 4.43824 | 670 ft | 94 kts | 240° |
| 2026-04-28 18:50 | 51.96218 | 4.42918 | 886 ft | 98 kts | 233° |
| 2026-04-28 18:51 | 51.95800 | 4.42067 | 1031 ft | 94 kts | 232° |
| 2026-04-28 18:51 | 51.95372 | 4.41247 | 1037 ft | 97 kts | 231° |
| 2026-04-28 18:51 | 51.94929 | 4.40352 | 937 ft | 108 kts | 233° |
| 2026-04-28 18:51 | 51.94505 | 4.39385 | 824 ft | 98 kts | 238° |
| 2026-04-28 18:52 | 51.94151 | 4.38597 | 673 ft | 80 kts | 214° |
| 2026-04-28 18:52 | 51.93674 | 4.38824 | 501 ft | 87 kts | 111° |
| 2026-04-28 18:52 | 51.93926 | 4.39694 | 414 ft | 90 kts | 50° |
| 2026-04-28 18:52 | 51.94281 | 4.40500 | 326 ft | 88 kts | 52° |
| 2026-04-28 18:53 | 51.94631 | 4.41351 | 244 ft | 93 kts | 55° |
| 2026-04-28 18:53 | 51.94994 | 4.42256 | 139 ft | 98 kts | 55° |
| 2026-04-28 18:53 | 51.95324 | 4.43105 | -5 ft | 71 kts | 60° |
| 2026-04-28 18:53 | 51.95578 | 4.43750 | -6 ft | 84 kts | 55° |
| 2026-04-28 18:54 | 51.95906 | 4.44534 | 259 ft | 94 kts | 53° |
| 2026-04-28 18:54 | 51.96335 | 4.45424 | 531 ft | 103 kts | 32° |
| 2026-04-28 18:54 | 51.96963 | 4.45194 | 759 ft | 111 kts | 295° |
| 2026-04-28 18:54 | 51.96705 | 4.43962 | 882 ft | 127 kts | 233° |
| 2026-04-28 18:55 | 51.96163 | 4.42794 | 1018 ft | 132 kts | 233° |
| 2026-04-28 18:55 | 51.95776 | 4.42006 | 1039 ft | 131 kts | 233° |
| 2026-04-28 18:55 | 51.95066 | 4.40864 | 715 ft | 92 kts | 187° |
| 2026-04-28 18:55 | 51.94759 | 4.41592 | 357 ft | 93 kts | 78° |
| 2026-04-28 18:56 | 51.95073 | 4.42472 | 121 ft | 87 kts | 56° |
| 2026-04-28 18:56 | 51.95392 | 4.43287 | -7 ft | 83 kts | 56° |
| 2026-04-28 18:56 | 51.95688 | 4.44022 | -10 ft | 92 kts | 56° |
| 2026-04-28 18:56 | 51.96104 | 4.44733 | 282 ft | 94 kts | 7° |
| 2026-04-28 18:57 | 51.96582 | 4.44116 | 478 ft | 106 kts | 272° |
| 2026-04-28 18:57 | 51.96185 | 4.42970 | 523 ft | 131 kts | 232° |
| 2026-04-28 18:57 | 51.95586 | 4.41801 | 516 ft | 126 kts | 230° |
| 2026-04-28 18:57 | 51.94983 | 4.41164 | 462 ft | 98 kts | 173° |
| 2026-04-28 18:58 | 51.94838 | 4.41970 | 320 ft | 95 kts | 53° |
| 2026-04-28 18:58 | 51.95224 | 4.42853 | 90 ft | 94 kts | 57° |
| 2026-04-28 18:58 | 51.95594 | 4.43724 | 178 ft | 92 kts | 55° |
| 2026-04-28 18:58 | 51.95954 | 4.44599 | 297 ft | 94 kts | 51° |
| 2026-04-28 18:59 | 51.96438 | 4.45151 | 381 ft | 83 kts | 356° |
| 2026-04-28 18:59 | 51.96761 | 4.44449 | 362 ft | 104 kts | 256° |
| 2026-04-28 18:59 | 51.96325 | 4.43418 | 431 ft | 120 kts | 230° |
| 2026-04-28 18:59 | 51.95756 | 4.42383 | 504 ft | 124 kts | 228° |
| 2026-04-28 19:00 | 51.95232 | 4.41269 | 594 ft | 125 kts | 240° |
| 2026-04-28 19:00 | 51.94584 | 4.40792 | 643 ft | 106 kts | 139° |
| 2026-04-28 19:00 | 51.94732 | 4.41729 | 399 ft | 90 kts | 52° |
| 2026-04-28 19:00 | 51.95075 | 4.42508 | 115 ft | 78 kts | 55° |
| 2026-04-28 19:01 | 51.95363 | 4.43213 | -10 ft | 60 kts | 57° |
| 2026-04-28 19:01 | 51.95492 | 4.43584 | -10 ft | 22 kts | 125° |
| 2026-04-28 19:01 | 51.95398 | 4.43515 | -11 ft | 15 kts | 217° |
| 2026-04-28 19:01 | 51.95312 | 4.43412 | -11 ft | 14 kts | 211° |
| 2026-04-28 19:02 | 51.95262 | 4.43478 | -11 ft | 12 kts | 112° |